TAF KPVD
KPVD 280538Z 2806/2906 28006KT P6SM FEW250 FM281700 24005KT P6SM VCSH BKN040 FM282000 02003KT P6SM VCSH BKN025 FM282300 02003KT P6SM VCSH OVC015 FM290500 34004KT P6SM OVC020=
METAR KPVD
WC KPVD
WS KPVD
WV KPVD